sensor_id;sensor_type;location;lat;lon;timestamp;P1;durP1;ratioP1;P2;durP2;ratioP2
3257;SDS011;1641;51.306;12.384;2024-02-28T00:01:15;34.35;;;15.57;;
3257;SDS011;1641;51.306;12.384;2024-02-28T00:03:41;31.75;;;15.43;;
3257;SDS011;1641;51.306;12.384;2024-02-28T00:06:07;43.33;;;17.13;;
3257;SDS011;1641;51.306;12.384;2024-02-28T00:08:32;38.17;;;16.27;;
3257;SDS011;1641;51.306;12.384;2024-02-28T00:10:57;42.55;;;19.45;;
3257;SDS011;1641;51.306;12.384;2024-02-28T00:13:22;40.80;;;16.83;;
3257;SDS011;1641;51.306;12.384;2024-02-28T00:15:49;47.33;;;19.02;;
3257;SDS011;1641;51.306;12.384;2024-02-28T00:18:14;40.88;;;16.90;;
3257;SDS011;1641;51.306;12.384;2024-02-28T00:20:40;39.10;;;17.70;;
3257;SDS011;1641;51.306;12.384;2024-02-28T00:23:05;40.28;;;18.92;;
3257;SDS011;1641;51.306;12.384;2024-02-28T00:25:30;35.97;;;17.83;;
3257;SDS011;1641;51.306;12.384;2024-02-28T00:27:55;45.70;;;17.52;;
3257;SDS011;1641;51.306;12.384;2024-02-28T00:30:21;45.15;;;19.10;;
3257;SDS011;1641;51.306;12.384;2024-02-28T00:32:46;42.40;;;18.95;;
3257;SDS011;1641;51.306;12.384;2024-02-28T00:35:11;44.72;;;19.23;;
3257;SDS011;1641;51.306;12.384;2024-02-28T00:37:37;44.58;;;19.95;;
3257;SDS011;1641;51.306;12.384;2024-02-28T00:40:02;41.30;;;17.33;;
3257;SDS011;1641;51.306;12.384;2024-02-28T00:42:28;38.47;;;17.10;;
3257;SDS011;1641;51.306;12.384;2024-02-28T00:44:53;32.03;;;15.55;;
3257;SDS011;1641;51.306;12.384;2024-02-28T00:47:18;42.30;;;18.08;;
3257;SDS011;1641;51.306;12.384;2024-02-28T00:49:44;36.15;;;18.60;;
3257;SDS011;1641;51.306;12.384;2024-02-28T00:52:09;45.33;;;17.17;;
3257;SDS011;1641;51.306;12.384;2024-02-28T00:54:34;36.97;;;16.85;;
3257;SDS011;1641;51.306;12.384;2024-02-28T00:56:59;36.72;;;16.30;;
3257;SDS011;1641;51.306;12.384;2024-02-28T00:59:25;34.92;;;18.15;;
3257;SDS011;1641;51.306;12.384;2024-02-28T01:01:50;34.78;;;17.27;;
3257;SDS011;1641;51.306;12.384;2024-02-28T01:04:19;36.72;;;17.60;;
3257;SDS011;1641;51.306;12.384;2024-02-28T01:06:44;37.92;;;16.63;;
3257;SDS011;1641;51.306;12.384;2024-02-28T01:09:10;40.03;;;17.85;;
3257;SDS011;1641;51.306;12.384;2024-02-28T01:11:35;36.28;;;16.52;;
3257;SDS011;1641;51.306;12.384;2024-02-28T01:14:00;40.10;;;18.10;;
3257;SDS011;1641;51.306;12.384;2024-02-28T01:16:26;34.47;;;18.25;;
3257;SDS011;1641;51.306;12.384;2024-02-28T01:18:51;36.97;;;18.50;;
3257;SDS011;1641;51.306;12.384;2024-02-28T01:21:17;41.05;;;19.80;;
3257;SDS011;1641;51.306;12.384;2024-02-28T01:23:42;44.25;;;20.10;;
3257;SDS011;1641;51.306;12.384;2024-02-28T01:26:07;41.53;;;20.00;;
3257;SDS011;1641;51.306;12.384;2024-02-28T01:28:33;42.40;;;19.95;;
3257;SDS011;1641;51.306;12.384;2024-02-28T01:30:58;43.45;;;20.88;;
3257;SDS011;1641;51.306;12.384;2024-02-28T01:33:25;44.97;;;19.48;;
3257;SDS011;1641;51.306;12.384;2024-02-28T01:35:50;42.50;;;21.92;;
3257;SDS011;1641;51.306;12.384;2024-02-28T01:38:16;41.42;;;19.30;;
3257;SDS011;1641;51.306;12.384;2024-02-28T01:40:47;42.10;;;21.55;;
3257;SDS011;1641;51.306;12.384;2024-02-28T01:43:12;44.40;;;19.58;;
3257;SDS011;1641;51.306;12.384;2024-02-28T01:45:38;37.42;;;18.02;;
3257;SDS011;1641;51.306;12.384;2024-02-28T01:48:04;39.65;;;18.02;;
3257;SDS011;1641;51.306;12.384;2024-02-28T01:50:33;41.35;;;19.90;;
3257;SDS011;1641;51.306;12.384;2024-02-28T01:52:59;43.38;;;20.80;;
3257;SDS011;1641;51.306;12.384;2024-02-28T01:55:25;39.55;;;20.70;;
3257;SDS011;1641;51.306;12.384;2024-02-28T01:57:51;45.15;;;22.20;;
3257;SDS011;1641;51.306;12.384;2024-02-28T02:00:17;41.58;;;21.50;;
3257;SDS011;1641;51.306;12.384;2024-02-28T02:02:44;38.78;;;18.77;;
3257;SDS011;1641;51.306;12.384;2024-02-28T02:05:09;40.58;;;20.67;;
3257;SDS011;1641;51.306;12.384;2024-02-28T02:07:35;43.78;;;20.80;;
3257;SDS011;1641;51.306;12.384;2024-02-28T02:10:01;42.42;;;20.05;;
3257;SDS011;1641;51.306;12.384;2024-02-28T02:12:26;45.45;;;20.33;;
3257;SDS011;1641;51.306;12.384;2024-02-28T02:14:52;40.90;;;21.23;;
3257;SDS011;1641;51.306;12.384;2024-02-28T02:17:17;44.83;;;22.13;;
3257;SDS011;1641;51.306;12.384;2024-02-28T02:19:42;43.47;;;22.33;;
3257;SDS011;1641;51.306;12.384;2024-02-28T02:22:08;32.92;;;18.17;;
3257;SDS011;1641;51.306;12.384;2024-02-28T02:24:35;41.83;;;19.17;;
3257;SDS011;1641;51.306;12.384;2024-02-28T02:27:00;43.78;;;20.67;;
3257;SDS011;1641;51.306;12.384;2024-02-28T02:29:26;39.60;;;18.80;;
3257;SDS011;1641;51.306;12.384;2024-02-28T02:31:53;45.33;;;21.52;;
3257;SDS011;1641;51.306;12.384;2024-02-28T02:34:18;41.20;;;20.70;;
3257;SDS011;1641;51.306;12.384;2024-02-28T02:36:44;46.92;;;22.52;;
3257;SDS011;1641;51.306;12.384;2024-02-28T02:39:09;47.35;;;20.48;;
3257;SDS011;1641;51.306;12.384;2024-02-28T02:41:34;45.00;;;21.90;;
3257;SDS011;1641;51.306;12.384;2024-02-28T02:43:59;40.67;;;20.98;;
3257;SDS011;1641;51.306;12.384;2024-02-28T02:46:25;43.40;;;22.92;;
3257;SDS011;1641;51.306;12.384;2024-02-28T02:48:50;40.95;;;19.67;;
3257;SDS011;1641;51.306;12.384;2024-02-28T02:51:17;43.72;;;20.95;;
3257;SDS011;1641;51.306;12.384;2024-02-28T02:53:43;50.15;;;21.63;;
3257;SDS011;1641;51.306;12.384;2024-02-28T02:56:09;36.97;;;19.65;;
3257;SDS011;1641;51.306;12.384;2024-02-28T02:58:34;35.92;;;20.65;;
3257;SDS011;1641;51.306;12.384;2024-02-28T03:00:59;44.65;;;19.70;;
3257;SDS011;1641;51.306;12.384;2024-02-28T03:03:24;47.53;;;18.08;;
3257;SDS011;1641;51.306;12.384;2024-02-28T03:05:49;43.25;;;20.38;;
3257;SDS011;1641;51.306;12.384;2024-02-28T03:08:15;42.13;;;19.60;;
3257;SDS011;1641;51.306;12.384;2024-02-28T03:10:40;46.65;;;19.95;;
3257;SDS011;1641;51.306;12.384;2024-02-28T03:13:05;47.78;;;21.35;;
3257;SDS011;1641;51.306;12.384;2024-02-28T03:15:31;39.38;;;19.80;;
3257;SDS011;1641;51.306;12.384;2024-02-28T03:17:57;36.30;;;16.52;;
3257;SDS011;1641;51.306;12.384;2024-02-28T03:20:22;41.78;;;19.48;;
3257;SDS011;1641;51.306;12.384;2024-02-28T03:22:47;40.80;;;20.77;;
3257;SDS011;1641;51.306;12.384;2024-02-28T03:25:12;43.17;;;23.08;;
3257;SDS011;1641;51.306;12.384;2024-02-28T03:27:38;35.80;;;18.65;;
3257;SDS011;1641;51.306;12.384;2024-02-28T03:30:03;36.42;;;17.02;;
3257;SDS011;1641;51.306;12.384;2024-02-28T03:32:29;35.83;;;18.67;;
3257;SDS011;1641;51.306;12.384;2024-02-28T03:34:54;34.58;;;19.00;;
3257;SDS011;1641;51.306;12.384;2024-02-28T03:37:19;30.77;;;14.95;;
3257;SDS011;1641;51.306;12.384;2024-02-28T03:39:44;37.55;;;18.45;;
3257;SDS011;1641;51.306;12.384;2024-02-28T03:42:10;29.40;;;15.32;;
3257;SDS011;1641;51.306;12.384;2024-02-28T03:44:35;31.70;;;17.63;;
3257;SDS011;1641;51.306;12.384;2024-02-28T03:47:00;32.15;;;19.27;;
3257;SDS011;1641;51.306;12.384;2024-02-28T03:49:25;37.25;;;18.52;;
3257;SDS011;1641;51.306;12.384;2024-02-28T03:51:50;37.65;;;19.02;;
3257;SDS011;1641;51.306;12.384;2024-02-28T03:54:16;35.75;;;18.35;;
3257;SDS011;1641;51.306;12.384;2024-02-28T03:56:41;35.53;;;19.88;;
3257;SDS011;1641;51.306;12.384;2024-02-28T03:59:06;33.17;;;17.38;;
3257;SDS011;1641;51.306;12.384;2024-02-28T04:01:31;32.83;;;18.15;;
3257;SDS011;1641;51.306;12.384;2024-02-28T04:03:57;33.47;;;18.75;;
3257;SDS011;1641;51.306;12.384;2024-02-28T04:06:22;34.22;;;18.67;;
3257;SDS011;1641;51.306;12.384;2024-02-28T04:08:47;39.17;;;19.40;;
3257;SDS011;1641;51.306;12.384;2024-02-28T04:11:13;33.58;;;18.85;;
3257;SDS011;1641;51.306;12.384;2024-02-28T04:13:38;34.55;;;19.08;;
3257;SDS011;1641;51.306;12.384;2024-02-28T04:16:03;38.65;;;21.63;;
3257;SDS011;1641;51.306;12.384;2024-02-28T04:18:29;39.22;;;21.40;;
3257;SDS011;1641;51.306;12.384;2024-02-28T04:20:55;41.20;;;21.05;;
3257;SDS011;1641;51.306;12.384;2024-02-28T04:23:20;37.95;;;21.33;;
3257;SDS011;1641;51.306;12.384;2024-02-28T04:25:45;38.95;;;21.40;;
3257;SDS011;1641;51.306;12.384;2024-02-28T04:28:11;38.58;;;19.17;;
3257;SDS011;1641;51.306;12.384;2024-02-28T04:30:36;37.70;;;21.65;;
3257;SDS011;1641;51.306;12.384;2024-02-28T04:33:01;44.25;;;23.35;;
3257;SDS011;1641;51.306;12.384;2024-02-28T04:35:26;46.20;;;26.33;;
3257;SDS011;1641;51.306;12.384;2024-02-28T04:37:52;41.92;;;22.08;;
3257;SDS011;1641;51.306;12.384;2024-02-28T04:40:17;41.05;;;21.48;;
3257;SDS011;1641;51.306;12.384;2024-02-28T04:42:42;41.80;;;21.52;;
3257;SDS011;1641;51.306;12.384;2024-02-28T04:45:08;40.65;;;20.55;;
3257;SDS011;1641;51.306;12.384;2024-02-28T04:47:34;39.20;;;24.65;;
3257;SDS011;1641;51.306;12.384;2024-02-28T04:49:59;40.50;;;22.58;;
3257;SDS011;1641;51.306;12.384;2024-02-28T04:52:24;43.25;;;23.55;;
3257;SDS011;1641;51.306;12.384;2024-02-28T04:54:50;44.13;;;23.85;;
3257;SDS011;1641;51.306;12.384;2024-02-28T04:57:15;44.85;;;24.25;;
3257;SDS011;1641;51.306;12.384;2024-02-28T04:59:43;42.88;;;22.75;;
3257;SDS011;1641;51.306;12.384;2024-02-28T05:02:09;43.47;;;24.75;;
3257;SDS011;1641;51.306;12.384;2024-02-28T05:04:35;44.17;;;26.30;;
3257;SDS011;1641;51.306;12.384;2024-02-28T05:07:00;42.58;;;23.48;;
3257;SDS011;1641;51.306;12.384;2024-02-28T05:09:25;45.55;;;27.30;;
3257;SDS011;1641;51.306;12.384;2024-02-28T05:11:50;40.25;;;23.23;;
3257;SDS011;1641;51.306;12.384;2024-02-28T05:14:16;45.58;;;25.15;;
3257;SDS011;1641;51.306;12.384;2024-02-28T05:16:41;43.67;;;23.00;;
3257;SDS011;1641;51.306;12.384;2024-02-28T05:19:06;31.25;;;16.30;;
3257;SDS011;1641;51.306;12.384;2024-02-28T05:21:38;40.83;;;22.77;;
3257;SDS011;1641;51.306;12.384;2024-02-28T05:24:05;38.45;;;22.25;;
3257;SDS011;1641;51.306;12.384;2024-02-28T05:26:31;36.05;;;23.00;;
3257;SDS011;1641;51.306;12.384;2024-02-28T05:28:58;39.83;;;22.73;;
3257;SDS011;1641;51.306;12.384;2024-02-28T05:31:24;35.83;;;20.65;;
3257;SDS011;1641;51.306;12.384;2024-02-28T05:33:52;40.53;;;20.70;;
3257;SDS011;1641;51.306;12.384;2024-02-28T05:36:22;36.35;;;20.77;;
3257;SDS011;1641;51.306;12.384;2024-02-28T05:38:48;32.60;;;18.67;;
3257;SDS011;1641;51.306;12.384;2024-02-28T05:41:15;34.60;;;19.95;;
3257;SDS011;1641;51.306;12.384;2024-02-28T05:43:42;32.58;;;19.95;;
3257;SDS011;1641;51.306;12.384;2024-02-28T05:46:14;34.65;;;19.08;;
3257;SDS011;1641;51.306;12.384;2024-02-28T05:48:40;35.30;;;19.92;;
3257;SDS011;1641;51.306;12.384;2024-02-28T05:51:06;32.88;;;18.42;;
3257;SDS011;1641;51.306;12.384;2024-02-28T05:53:31;36.65;;;18.80;;
3257;SDS011;1641;51.306;12.384;2024-02-28T05:56:00;32.10;;;19.05;;
3257;SDS011;1641;51.306;12.384;2024-02-28T05:58:26;32.95;;;17.60;;
3257;SDS011;1641;51.306;12.384;2024-02-28T06:00:51;28.00;;;17.42;;
3257;SDS011;1641;51.306;12.384;2024-02-28T06:03:17;29.48;;;15.52;;
3257;SDS011;1641;51.306;12.384;2024-02-28T06:05:42;29.08;;;16.48;;
3257;SDS011;1641;51.306;12.384;2024-02-28T06:08:07;27.33;;;16.65;;
3257;SDS011;1641;51.306;12.384;2024-02-28T06:10:32;28.10;;;16.35;;
3257;SDS011;1641;51.306;12.384;2024-02-28T06:12:58;25.95;;;15.05;;
3257;SDS011;1641;51.306;12.384;2024-02-28T06:15:23;30.70;;;16.92;;
3257;SDS011;1641;51.306;12.384;2024-02-28T06:17:49;30.02;;;18.25;;
3257;SDS011;1641;51.306;12.384;2024-02-28T06:20:14;32.15;;;15.50;;
3257;SDS011;1641;51.306;12.384;2024-02-28T06:22:39;33.53;;;17.55;;
3257;SDS011;1641;51.306;12.384;2024-02-28T06:25:05;29.90;;;17.58;;
3257;SDS011;1641;51.306;12.384;2024-02-28T06:27:36;30.45;;;18.45;;
3257;SDS011;1641;51.306;12.384;2024-02-28T06:30:01;31.88;;;17.98;;
3257;SDS011;1641;51.306;12.384;2024-02-28T06:32:27;31.38;;;17.25;;
3257;SDS011;1641;51.306;12.384;2024-02-28T06:34:52;34.60;;;17.75;;
3257;SDS011;1641;51.306;12.384;2024-02-28T06:37:18;33.17;;;17.27;;
3257;SDS011;1641;51.306;12.384;2024-02-28T06:39:43;35.22;;;18.92;;
3257;SDS011;1641;51.306;12.384;2024-02-28T06:42:09;34.65;;;17.25;;
3257;SDS011;1641;51.306;12.384;2024-02-28T06:44:34;35.00;;;19.17;;
3257;SDS011;1641;51.306;12.384;2024-02-28T06:46:59;33.35;;;18.83;;
3257;SDS011;1641;51.306;12.384;2024-02-28T06:49:24;30.40;;;17.90;;
3257;SDS011;1641;51.306;12.384;2024-02-28T06:51:50;41.17;;;20.98;;
3257;SDS011;1641;51.306;12.384;2024-02-28T06:54:15;34.03;;;19.13;;
3257;SDS011;1641;51.306;12.384;2024-02-28T06:56:40;36.15;;;20.10;;
3257;SDS011;1641;51.306;12.384;2024-02-28T06:59:06;41.08;;;19.95;;
3257;SDS011;1641;51.306;12.384;2024-02-28T07:01:32;41.63;;;23.58;;
3257;SDS011;1641;51.306;12.384;2024-02-28T07:03:57;43.35;;;24.02;;
3257;SDS011;1641;51.306;12.384;2024-02-28T07:06:22;45.35;;;23.65;;
3257;SDS011;1641;51.306;12.384;2024-02-28T07:08:48;47.08;;;25.17;;
3257;SDS011;1641;51.306;12.384;2024-02-28T07:11:13;46.22;;;24.85;;
3257;SDS011;1641;51.306;12.384;2024-02-28T07:13:39;51.38;;;26.73;;
3257;SDS011;1641;51.306;12.384;2024-02-28T07:16:05;53.75;;;27.48;;
3257;SDS011;1641;51.306;12.384;2024-02-28T07:18:31;54.03;;;28.45;;
3257;SDS011;1641;51.306;12.384;2024-02-28T07:20:56;50.92;;;26.80;;
3257;SDS011;1641;51.306;12.384;2024-02-28T07:23:21;55.67;;;27.17;;
3257;SDS011;1641;51.306;12.384;2024-02-28T07:25:47;51.58;;;27.20;;
3257;SDS011;1641;51.306;12.384;2024-02-28T07:28:12;50.55;;;27.98;;
3257;SDS011;1641;51.306;12.384;2024-02-28T07:30:37;53.33;;;28.20;;
3257;SDS011;1641;51.306;12.384;2024-02-28T07:33:05;52.97;;;28.75;;
3257;SDS011;1641;51.306;12.384;2024-02-28T07:35:30;52.22;;;27.15;;
3257;SDS011;1641;51.306;12.384;2024-02-28T07:37:55;53.80;;;28.17;;
3257;SDS011;1641;51.306;12.384;2024-02-28T07:40:21;50.88;;;26.95;;
3257;SDS011;1641;51.306;12.384;2024-02-28T07:42:46;57.17;;;27.48;;
3257;SDS011;1641;51.306;12.384;2024-02-28T07:45:11;53.08;;;27.27;;
3257;SDS011;1641;51.306;12.384;2024-02-28T07:47:37;52.00;;;27.23;;
3257;SDS011;1641;51.306;12.384;2024-02-28T07:50:02;52.17;;;27.73;;
3257;SDS011;1641;51.306;12.384;2024-02-28T07:52:27;55.03;;;27.88;;
3257;SDS011;1641;51.306;12.384;2024-02-28T07:54:53;50.08;;;26.48;;
3257;SDS011;1641;51.306;12.384;2024-02-28T07:57:18;45.40;;;23.20;;
3257;SDS011;1641;51.306;12.384;2024-02-28T07:59:43;41.83;;;21.83;;
3257;SDS011;1641;51.306;12.384;2024-02-28T08:02:09;44.03;;;25.63;;
3257;SDS011;1641;51.306;12.384;2024-02-28T08:04:36;42.53;;;23.15;;
3257;SDS011;1641;51.306;12.384;2024-02-28T08:07:02;47.08;;;24.73;;
3257;SDS011;1641;51.306;12.384;2024-02-28T08:09:28;47.63;;;26.38;;
3257;SDS011;1641;51.306;12.384;2024-02-28T08:11:53;55.70;;;28.65;;
3257;SDS011;1641;51.306;12.384;2024-02-28T08:14:18;43.80;;;24.60;;
3257;SDS011;1641;51.306;12.384;2024-02-28T08:16:44;44.85;;;25.95;;
3257;SDS011;1641;51.306;12.384;2024-02-28T08:19:09;43.88;;;25.67;;
3257;SDS011;1641;51.306;12.384;2024-02-28T08:21:34;38.33;;;23.27;;
3257;SDS011;1641;51.306;12.384;2024-02-28T08:23:59;38.78;;;23.83;;
3257;SDS011;1641;51.306;12.384;2024-02-28T08:26:27;37.83;;;22.02;;
3257;SDS011;1641;51.306;12.384;2024-02-28T08:28:52;38.08;;;21.90;;
3257;SDS011;1641;51.306;12.384;2024-02-28T08:31:18;39.53;;;23.27;;
3257;SDS011;1641;51.306;12.384;2024-02-28T08:33:43;41.75;;;24.20;;
3257;SDS011;1641;51.306;12.384;2024-02-28T08:36:08;37.85;;;21.30;;
3257;SDS011;1641;51.306;12.384;2024-02-28T08:38:33;36.50;;;22.83;;
3257;SDS011;1641;51.306;12.384;2024-02-28T08:40:59;38.45;;;21.92;;
3257;SDS011;1641;51.306;12.384;2024-02-28T08:43:25;38.55;;;23.52;;
3257;SDS011;1641;51.306;12.384;2024-02-28T08:45:50;35.65;;;23.67;;
3257;SDS011;1641;51.306;12.384;2024-02-28T08:48:16;35.28;;;21.15;;
3257;SDS011;1641;51.306;12.384;2024-02-28T08:50:42;36.38;;;23.60;;
3257;SDS011;1641;51.306;12.384;2024-02-28T08:53:07;37.08;;;20.83;;
3257;SDS011;1641;51.306;12.384;2024-02-28T08:55:33;36.45;;;21.23;;
3257;SDS011;1641;51.306;12.384;2024-02-28T08:57:58;32.67;;;20.25;;
3257;SDS011;1641;51.306;12.384;2024-02-28T09:00:23;39.78;;;21.67;;
3257;SDS011;1641;51.306;12.384;2024-02-28T09:02:48;35.00;;;20.88;;
3257;SDS011;1641;51.306;12.384;2024-02-28T09:05:14;35.25;;;21.25;;
3257;SDS011;1641;51.306;12.384;2024-02-28T09:07:39;38.72;;;22.02;;
3257;SDS011;1641;51.306;12.384;2024-02-28T09:10:04;33.85;;;20.83;;
3257;SDS011;1641;51.306;12.384;2024-02-28T09:12:31;32.05;;;18.58;;
3257;SDS011;1641;51.306;12.384;2024-02-28T09:14:56;31.92;;;20.95;;
3257;SDS011;1641;51.306;12.384;2024-02-28T09:17:23;32.45;;;20.08;;
3257;SDS011;1641;51.306;12.384;2024-02-28T09:19:48;34.15;;;21.25;;
3257;SDS011;1641;51.306;12.384;2024-02-28T09:22:14;20.55;;;13.15;;
3257;SDS011;1641;51.306;12.384;2024-02-28T09:24:40;29.48;;;17.85;;
3257;SDS011;1641;51.306;12.384;2024-02-28T09:27:05;30.45;;;20.58;;
3257;SDS011;1641;51.306;12.384;2024-02-28T09:29:30;30.65;;;18.08;;
3257;SDS011;1641;51.306;12.384;2024-02-28T09:31:55;30.08;;;20.40;;
3257;SDS011;1641;51.306;12.384;2024-02-28T09:34:21;34.92;;;20.27;;
3257;SDS011;1641;51.306;12.384;2024-02-28T09:36:47;29.30;;;16.85;;
3257;SDS011;1641;51.306;12.384;2024-02-28T09:39:13;31.90;;;20.23;;
3257;SDS011;1641;51.306;12.384;2024-02-28T09:41:40;30.38;;;16.67;;
3257;SDS011;1641;51.306;12.384;2024-02-28T09:44:06;29.33;;;18.77;;
3257;SDS011;1641;51.306;12.384;2024-02-28T09:46:32;31.83;;;20.27;;
3257;SDS011;1641;51.306;12.384;2024-02-28T09:48:59;31.80;;;19.80;;
3257;SDS011;1641;51.306;12.384;2024-02-28T09:51:28;36.10;;;22.65;;
3257;SDS011;1641;51.306;12.384;2024-02-28T09:53:58;36.28;;;22.80;;
3257;SDS011;1641;51.306;12.384;2024-02-28T09:56:25;37.03;;;23.70;;
3257;SDS011;1641;51.306;12.384;2024-02-28T09:58:50;37.30;;;23.33;;
3257;SDS011;1641;51.306;12.384;2024-02-28T10:01:16;31.40;;;21.35;;
3257;SDS011;1641;51.306;12.384;2024-02-28T10:03:44;34.75;;;22.25;;
3257;SDS011;1641;51.306;12.384;2024-02-28T10:06:12;34.80;;;21.25;;
3257;SDS011;1641;51.306;12.384;2024-02-28T10:08:38;34.95;;;21.88;;
3257;SDS011;1641;51.306;12.384;2024-02-28T10:11:04;32.67;;;22.15;;
3257;SDS011;1641;51.306;12.384;2024-02-28T10:13:30;34.28;;;22.33;;
3257;SDS011;1641;51.306;12.384;2024-02-28T10:15:56;36.40;;;22.90;;
3257;SDS011;1641;51.306;12.384;2024-02-28T10:18:21;36.53;;;22.15;;
3257;SDS011;1641;51.306;12.384;2024-02-28T10:20:47;33.97;;;20.70;;
3257;SDS011;1641;51.306;12.384;2024-02-28T10:23:13;32.92;;;21.25;;
3257;SDS011;1641;51.306;12.384;2024-02-28T10:25:45;28.65;;;20.08;;
3257;SDS011;1641;51.306;12.384;2024-02-28T10:28:11;35.60;;;21.65;;
3257;SDS011;1641;51.306;12.384;2024-02-28T10:30:38;35.55;;;21.02;;
3257;SDS011;1641;51.306;12.384;2024-02-28T10:33:09;37.30;;;23.40;;
3257;SDS011;1641;51.306;12.384;2024-02-28T10:35:35;32.53;;;21.17;;
3257;SDS011;1641;51.306;12.384;2024-02-28T10:38:01;32.60;;;21.73;;
3257;SDS011;1641;51.306;12.384;2024-02-28T10:40:27;30.48;;;20.50;;
3257;SDS011;1641;51.306;12.384;2024-02-28T10:42:53;34.50;;;21.95;;
3257;SDS011;1641;51.306;12.384;2024-02-28T10:45:19;33.13;;;21.77;;
3257;SDS011;1641;51.306;12.384;2024-02-28T10:47:45;38.20;;;21.48;;
3257;SDS011;1641;51.306;12.384;2024-02-28T11:05:41;27.90;;;17.42;;
3257;SDS011;1641;51.306;12.384;2024-02-28T11:08:11;29.45;;;18.65;;
3257;SDS011;1641;51.306;12.384;2024-02-28T11:10:45;29.13;;;18.90;;
3257;SDS011;1641;51.306;12.384;2024-02-28T11:13:21;27.05;;;14.68;;
3257;SDS011;1641;51.306;12.384;2024-02-28T11:15:47;27.10;;;15.93;;
3257;SDS011;1641;51.306;12.384;2024-02-28T11:18:12;29.45;;;19.30;;
3257;SDS011;1641;51.306;12.384;2024-02-28T11:20:39;24.10;;;15.30;;
3257;SDS011;1641;51.306;12.384;2024-02-28T11:23:09;24.35;;;15.20;;
3257;SDS011;1641;51.306;12.384;2024-02-28T11:25:34;26.95;;;16.52;;
3257;SDS011;1641;51.306;12.384;2024-02-28T11:28:00;24.90;;;16.65;;
3257;SDS011;1641;51.306;12.384;2024-02-28T11:30:26;24.65;;;15.10;;
3257;SDS011;1641;51.306;12.384;2024-02-28T11:32:54;23.23;;;14.48;;
3257;SDS011;1641;51.306;12.384;2024-02-28T11:35:20;28.40;;;16.85;;
3257;SDS011;1641;51.306;12.384;2024-02-28T11:37:46;30.85;;;18.60;;
3257;SDS011;1641;51.306;12.384;2024-02-28T11:40:12;26.90;;;15.63;;
3257;SDS011;1641;51.306;12.384;2024-02-28T11:42:38;28.25;;;16.13;;
3257;SDS011;1641;51.306;12.384;2024-02-28T11:45:04;26.38;;;16.20;;
3257;SDS011;1641;51.306;12.384;2024-02-28T11:47:31;25.58;;;15.57;;
3257;SDS011;1641;51.306;12.384;2024-02-28T11:50:00;27.95;;;16.35;;
3257;SDS011;1641;51.306;12.384;2024-02-28T11:52:26;26.20;;;15.98;;
3257;SDS011;1641;51.306;12.384;2024-02-28T11:57:43;20.40;;;11.85;;
3257;SDS011;1641;51.306;12.384;2024-02-28T12:00:16;22.13;;;14.48;;
3257;SDS011;1641;51.306;12.384;2024-02-28T12:02:45;22.30;;;13.02;;
3257;SDS011;1641;51.306;12.384;2024-02-28T12:05:14;21.05;;;13.45;;
3257;SDS011;1641;51.306;12.384;2024-02-28T12:07:44;22.27;;;14.52;;
3257;SDS011;1641;51.306;12.384;2024-02-28T12:10:15;20.30;;;13.85;;
3257;SDS011;1641;51.306;12.384;2024-02-28T12:12:44;19.48;;;12.57;;
3257;SDS011;1641;51.306;12.384;2024-02-28T12:15:14;19.50;;;11.95;;
3257;SDS011;1641;51.306;12.384;2024-02-28T12:17:42;16.65;;;11.35;;
3257;SDS011;1641;51.306;12.384;2024-02-28T12:20:08;19.80;;;12.20;;
3257;SDS011;1641;51.306;12.384;2024-02-28T12:22:34;19.60;;;12.95;;
3257;SDS011;1641;51.306;12.384;2024-02-28T12:24:59;18.50;;;11.80;;
3257;SDS011;1641;51.306;12.384;2024-02-28T12:27:29;19.42;;;13.20;;
3257;SDS011;1641;51.306;12.384;2024-02-28T12:29:56;17.25;;;12.35;;
3257;SDS011;1641;51.306;12.384;2024-02-28T12:32:21;18.52;;;11.50;;
3257;SDS011;1641;51.306;12.384;2024-02-28T12:34:46;17.23;;;11.45;;
3257;SDS011;1641;51.306;12.384;2024-02-28T12:37:12;17.95;;;12.05;;
3257;SDS011;1641;51.306;12.384;2024-02-28T12:39:37;20.67;;;12.63;;
3257;SDS011;1641;51.306;12.384;2024-02-28T12:42:02;18.23;;;11.95;;
3257;SDS011;1641;51.306;12.384;2024-02-28T12:44:27;24.77;;;12.50;;
3257;SDS011;1641;51.306;12.384;2024-02-28T12:46:55;20.50;;;13.15;;
3257;SDS011;1641;51.306;12.384;2024-02-28T12:49:20;21.20;;;13.43;;
3257;SDS011;1641;51.306;12.384;2024-02-28T12:51:46;19.55;;;11.98;;
3257;SDS011;1641;51.306;12.384;2024-02-28T12:54:13;15.02;;;10.43;;
3257;SDS011;1641;51.306;12.384;2024-02-28T12:56:42;13.98;;;8.93;;
3257;SDS011;1641;51.306;12.384;2024-02-28T12:59:10;24.10;;;11.63;;
3257;SDS011;1641;51.306;12.384;2024-02-28T13:01:37;14.57;;;10.88;;
3257;SDS011;1641;51.306;12.384;2024-02-28T13:04:02;17.45;;;11.73;;
3257;SDS011;1641;51.306;12.384;2024-02-28T13:06:30;15.98;;;10.60;;
3257;SDS011;1641;51.306;12.384;2024-02-28T13:08:55;17.88;;;10.63;;
3257;SDS011;1641;51.306;12.384;2024-02-28T13:11:22;21.77;;;12.00;;
3257;SDS011;1641;51.306;12.384;2024-02-28T13:13:48;21.55;;;12.27;;
3257;SDS011;1641;51.306;12.384;2024-02-28T13:16:15;16.35;;;11.57;;
3257;SDS011;1641;51.306;12.384;2024-02-28T13:18:41;17.52;;;11.50;;
3257;SDS011;1641;51.306;12.384;2024-02-28T13:21:07;15.90;;;10.65;;
3257;SDS011;1641;51.306;12.384;2024-02-28T13:23:33;14.85;;;10.20;;
3257;SDS011;1641;51.306;12.384;2024-02-28T13:25:58;18.30;;;9.88;;
3257;SDS011;1641;51.306;12.384;2024-02-28T13:28:24;16.40;;;10.00;;
3257;SDS011;1641;51.306;12.384;2024-02-28T13:30:55;13.82;;;9.73;;
3257;SDS011;1641;51.306;12.384;2024-02-28T13:33:21;13.13;;;8.63;;
3257;SDS011;1641;51.306;12.384;2024-02-28T13:35:47;14.13;;;9.18;;
3257;SDS011;1641;51.306;12.384;2024-02-28T13:38:12;15.25;;;10.00;;
3257;SDS011;1641;51.306;12.384;2024-02-28T13:40:37;15.27;;;10.57;;
3257;SDS011;1641;51.306;12.384;2024-02-28T13:43:03;15.82;;;10.20;;
3257;SDS011;1641;51.306;12.384;2024-02-28T13:57:11;12.88;;;7.75;;
3257;SDS011;1641;51.306;12.384;2024-02-28T13:59:37;12.82;;;9.35;;
3257;SDS011;1641;51.306;12.384;2024-02-28T14:02:02;12.75;;;7.55;;
3257;SDS011;1641;51.306;12.384;2024-02-28T14:04:27;12.93;;;8.50;;
3257;SDS011;1641;51.306;12.384;2024-02-28T14:06:52;14.30;;;9.60;;
3257;SDS011;1641;51.306;12.384;2024-02-28T14:09:18;13.57;;;9.30;;
3257;SDS011;1641;51.306;12.384;2024-02-28T14:11:43;14.27;;;8.65;;
3257;SDS011;1641;51.306;12.384;2024-02-28T14:14:10;11.88;;;8.63;;
3257;SDS011;1641;51.306;12.384;2024-02-28T14:16:36;17.45;;;9.25;;
3257;SDS011;1641;51.306;12.384;2024-02-28T14:19:02;12.75;;;8.98;;
3257;SDS011;1641;51.306;12.384;2024-02-28T14:21:27;14.45;;;9.93;;
3257;SDS011;1641;51.306;12.384;2024-02-28T14:23:53;14.00;;;8.77;;
3257;SDS011;1641;51.306;12.384;2024-02-28T14:26:19;13.52;;;9.55;;
3257;SDS011;1641;51.306;12.384;2024-02-28T14:28:44;14.95;;;10.27;;
3257;SDS011;1641;51.306;12.384;2024-02-28T14:31:09;15.32;;;9.77;;
3257;SDS011;1641;51.306;12.384;2024-02-28T14:33:35;15.43;;;9.95;;
3257;SDS011;1641;51.306;12.384;2024-02-28T14:36:01;15.85;;;9.95;;
3257;SDS011;1641;51.306;12.384;2024-02-28T14:38:28;14.73;;;8.93;;
3257;SDS011;1641;51.306;12.384;2024-02-28T14:40:54;14.77;;;8.88;;
3257;SDS011;1641;51.306;12.384;2024-02-28T14:43:19;16.73;;;9.85;;
3257;SDS011;1641;51.306;12.384;2024-02-28T14:45:44;17.30;;;10.88;;
3257;SDS011;1641;51.306;12.384;2024-02-28T14:48:09;20.98;;;9.70;;
3257;SDS011;1641;51.306;12.384;2024-02-28T14:50:38;14.57;;;9.15;;
3257;SDS011;1641;51.306;12.384;2024-02-28T14:53:03;17.10;;;9.93;;
3257;SDS011;1641;51.306;12.384;2024-02-28T14:55:28;15.52;;;9.82;;
3257;SDS011;1641;51.306;12.384;2024-02-28T14:57:54;17.30;;;9.65;;